»·PEaware :: N2GS KCRQ-KPSP

N2GS :: KCRQ-KPSP

FLIGHT INFORMATION

Flight Status: Arrived
Operator: Privately registered:
United States
More flights under this callsign
Pilot: Greg S. (16931)
Aircraft: PILATUS PC-12 EAGLE
(PC12)
More flights by this aircraft type
Origin: KCRQ McClellan-Palomar
United States
Destination: KPSP Palm Springs Intl
United States
More flights between these airports :: More routes between these airports
Route: +V208 TRM
File this flight plan on PilotEdge
Remarks:
Altitude:
(Current/Filed)
11,000ft
Speed:
(Current/Filed)
200kts
Departed: 04-Apr-20 10:50 AM
Arrived: 04-Apr-20 11:39 AM
Distance/Time
Traveled:
57nm/0:49
Distance/Time
To Go:
Arrived

Flight Plot

Page will automatically refresh every two minutes.


Map Options




Map Legend


Flown Route
Filed Route
Departure Airport
Arrival Airport
Navaid (VOR, NDB)
Fix

Horizontal Profiles

Position Reports

Time Latitude Longitude Heading Altitude Ground
Speed
04-Apr-20 10:05 33.127596 -117.275804 170 335ft 0kts
04-Apr-20 10:06 33.127596 -117.275804 170 335ft 0kts
04-Apr-20 10:07 33.127596 -117.275804 170 335ft 0kts
04-Apr-20 10:08 33.127596 -117.275804 170 335ft 0kts
04-Apr-20 10:09 33.127596 -117.275804 170 335ft 0kts
04-Apr-20 10:10 33.127596 -117.275804 170 335ft 0kts
04-Apr-20 10:11 33.127596 -117.275804 170 335ft 0kts
04-Apr-20 10:12 33.127596 -117.275804 170 335ft 0kts
04-Apr-20 10:13 33.127596 -117.275804 170 335ft 0kts
04-Apr-20 10:14 33.127596 -117.275804 170 335ft 0kts
04-Apr-20 10:15 33.127596 -117.275804 170 335ft 0kts
04-Apr-20 10:16 33.127596 -117.275804 170 335ft 0kts
04-Apr-20 10:17 33.127596 -117.275804 170 335ft 0kts
04-Apr-20 10:18 33.127596 -117.275804 170 335ft 0kts
04-Apr-20 10:19 33.127596 -117.275804 170 335ft 0kts
04-Apr-20 10:20 33.127596 -117.275804 170 335ft 0kts
04-Apr-20 10:21 33.127596 -117.275804 170 335ft 0kts
04-Apr-20 10:22 33.127596 -117.275804 170 335ft 0kts
04-Apr-20 10:23 33.127596 -117.275804 170 335ft 0kts
04-Apr-20 10:24 33.127596 -117.275804 170 335ft 0kts
04-Apr-20 10:25 33.127596 -117.275804 170 335ft 0kts
04-Apr-20 10:26 33.127596 -117.275804 170 335ft 0kts
04-Apr-20 10:27 33.127596 -117.275804 170 335ft 0kts
04-Apr-20 10:28 33.127596 -117.275804 170 335ft 0kts
04-Apr-20 10:29 33.127596 -117.275804 170 335ft 0kts
04-Apr-20 10:30 33.127596 -117.275804 170 335ft 0kts
04-Apr-20 10:31 33.127596 -117.275804 170 335ft 0kts
04-Apr-20 10:32 33.127596 -117.275804 170 335ft 0kts
04-Apr-20 10:33 33.127596 -117.275804 170 335ft 0kts
04-Apr-20 10:34 33.127596 -117.275804 170 335ft 0kts
04-Apr-20 10:35 33.127596 -117.275804 170 335ft 0kts
04-Apr-20 10:36 33.127596 -117.275804 170 335ft 0kts
04-Apr-20 10:37 33.127595 -117.275804 170 335ft 0kts
04-Apr-20 10:38 33.127595 -117.275804 170 335ft 0kts
04-Apr-20 10:39 33.127595 -117.275804 170 335ft 0kts
04-Apr-20 10:40 33.127730 -117.275837 167 335ft 0kts
04-Apr-20 10:41 33.127725 -117.275723 74 335ft 0kts
04-Apr-20 10:42 33.127725 -117.275723 74 335ft 0kts
04-Apr-20 10:43 33.127725 -117.275723 74 335ft 0kts
04-Apr-20 10:44 33.128444 -117.273141 89 335ft 11kts
04-Apr-20 10:45 33.128369 -117.272581 351 335ft 0kts
04-Apr-20 10:46 33.128369 -117.272581 351 335ft 0kts
04-Apr-20 10:47 33.128369 -117.272581 351 335ft 0kts
04-Apr-20 10:48 33.129326 -117.272942 300 335ft 8kts
04-Apr-20 10:49 33.127354 -117.300050 270 1478ft 102kts
04-Apr-20 10:50 33.122644 -117.338274 250 2980ft 134kts
04-Apr-20 10:51 33.114283 -117.377641 256 5024ft 123kts
04-Apr-20 10:52 33.111140 -117.416961 265 5770ft 171kts
04-Apr-20 10:53 33.079085 -117.445222 138 6020ft 215kts
04-Apr-20 10:55 33.078986 -117.392304 81 5896ft 246kts
04-Apr-20 10:56 33.088191 -117.341286 77 7426ft 190kts
04-Apr-20 10:57 33.095388 -117.295945 83 9271ft 160kts
04-Apr-20 10:58 33.097666 -117.247990 83 10695ft 171kts
04-Apr-20 10:59 33.102475 -117.190611 86 10932ft 230kts
04-Apr-20 11:00 33.107775 -117.125018 77 11533ft 234kts
04-Apr-20 11:01 33.116806 -117.058425 79 11119ft 262kts
04-Apr-20 11:02 33.125716 -116.992879 88 11004ft 270kts
04-Apr-20 11:03 33.129446 -116.924546 79 10755ft 271kts
04-Apr-20 11:04 33.144746 -116.848241 73 10856ft 266kts
04-Apr-20 11:05 33.153416 -116.772024 86 11071ft 255kts
04-Apr-20 11:06 33.159751 -116.698046 97 10916ft 263kts
04-Apr-20 11:07 33.145949 -116.628536 111 11359ft 244kts
04-Apr-20 11:08 33.142062 -116.553452 55 11046ft 258kts
04-Apr-20 11:09 33.197769 -116.491941 43 11047ft 241kts
04-Apr-20 11:10 33.255373 -116.453198 22 11069ft 247kts
04-Apr-20 11:10 33.309983 -116.412280 33 10672ft 238kts
04-Apr-20 11:12 33.377274 -116.350841 30 10986ft 228kts
04-Apr-20 11:13 33.444014 -116.302941 20 10641ft 233kts
04-Apr-20 11:13 33.502070 -116.275989 24 10726ft 231kts
04-Apr-20 11:14 33.555501 -116.215244 57 9565ft 229kts
04-Apr-20 11:16 33.616344 -116.130720 26 6498ft 218kts
04-Apr-20 11:17 33.667138 -116.114754 322 5178ft 198kts
04-Apr-20 11:17 33.687953 -116.158756 332 4603ft 174kts
04-Apr-20 11:18 33.727899 -116.145213 64 5025ft 148kts
04-Apr-20 11:19 33.717188 -116.110434 167 4841ft 110kts
04-Apr-20 11:20 33.691559 -116.120805 256 4169ft 89kts
04-Apr-20 11:21 33.677293 -116.148260 237 3912ft 89kts
04-Apr-20 11:22 33.659360 -116.172799 214 3621ft 96kts
04-Apr-20 11:23 33.658625 -116.200102 292 3507ft 91kts
04-Apr-20 11:24 33.673180 -116.225135 332 3162ft 99kts
04-Apr-20 11:25 33.690179 -116.248507 302 2984ft 91kts
04-Apr-20 11:26 33.705008 -116.274233 322 2720ft 92kts
04-Apr-20 11:27 33.725169 -116.290970 307 2500ft 102kts
04-Apr-20 11:28 33.740511 -116.319976 297 1974ft 104kts
04-Apr-20 11:29 33.750766 -116.349095 302 1834ft 97kts
04-Apr-20 11:30 33.761890 -116.376655 292 1763ft 95kts
04-Apr-20 11:31 33.769979 -116.405939 286 1683ft 94kts
04-Apr-20 11:38 33.825779 -116.508059 254 418ft 0kts

Navigation Log

Ident Type
Flight plan parsing failed, navigation log unavailable